sensor_id;sensor_type;location;lat;lon;timestamp;P1;durP1;ratioP1;P2;durP2;ratioP2
21418;SDS011;10870;51.384;10.316;2022-12-07T00:01:41;28.80;;;15.95;;
21418;SDS011;10870;51.384;10.316;2022-12-07T00:03:43;29.33;;;17.85;;
21418;SDS011;10870;51.384;10.316;2022-12-07T00:05:44;30.27;;;16.75;;
21418;SDS011;10870;51.384;10.316;2022-12-07T00:07:49;26.95;;;16.20;;
21418;SDS011;10870;51.384;10.316;2022-12-07T00:09:52;28.50;;;16.15;;
21418;SDS011;10870;51.384;10.316;2022-12-07T00:11:58;28.50;;;17.60;;
21418;SDS011;10870;51.384;10.316;2022-12-07T00:14:03;34.67;;;19.05;;
21418;SDS011;10870;51.384;10.316;2022-12-07T00:16:07;24.98;;;16.30;;
21418;SDS011;10870;51.384;10.316;2022-12-07T00:18:09;29.65;;;16.50;;
21418;SDS011;10870;51.384;10.316;2022-12-07T00:20:10;25.98;;;15.20;;
21418;SDS011;10870;51.384;10.316;2022-12-07T00:22:14;22.60;;;14.35;;
21418;SDS011;10870;51.384;10.316;2022-12-07T00:24:15;22.98;;;15.00;;
21418;SDS011;10870;51.384;10.316;2022-12-07T00:26:23;23.05;;;15.15;;
21418;SDS011;10870;51.384;10.316;2022-12-07T00:28:24;25.20;;;15.15;;
21418;SDS011;10870;51.384;10.316;2022-12-07T00:30:25;22.60;;;15.13;;
21418;SDS011;10870;51.384;10.316;2022-12-07T00:32:27;26.92;;;15.95;;
21418;SDS011;10870;51.384;10.316;2022-12-07T00:34:30;24.60;;;14.80;;
21418;SDS011;10870;51.384;10.316;2022-12-07T00:36:32;25.05;;;16.00;;
21418;SDS011;10870;51.384;10.316;2022-12-07T00:38:36;26.17;;;15.30;;
21418;SDS011;10870;51.384;10.316;2022-12-07T00:40:38;26.75;;;14.93;;
21418;SDS011;10870;51.384;10.316;2022-12-07T00:42:39;28.38;;;16.95;;
21418;SDS011;10870;51.384;10.316;2022-12-07T00:44:40;26.75;;;16.48;;
21418;SDS011;10870;51.384;10.316;2022-12-07T00:46:44;26.60;;;16.50;;
21418;SDS011;10870;51.384;10.316;2022-12-07T00:48:46;26.23;;;15.75;;
21418;SDS011;10870;51.384;10.316;2022-12-07T00:50:48;24.65;;;14.50;;
21418;SDS011;10870;51.384;10.316;2022-12-07T00:52:49;21.70;;;13.70;;
21418;SDS011;10870;51.384;10.316;2022-12-07T00:54:50;23.02;;;14.90;;
21418;SDS011;10870;51.384;10.316;2022-12-07T00:56:54;24.05;;;14.60;;
21418;SDS011;10870;51.384;10.316;2022-12-07T00:58:57;19.58;;;13.40;;
21418;SDS011;10870;51.384;10.316;2022-12-07T01:01:02;19.83;;;12.27;;
21418;SDS011;10870;51.384;10.316;2022-12-07T01:03:04;19.05;;;13.35;;
21418;SDS011;10870;51.384;10.316;2022-12-07T01:05:06;19.77;;;14.27;;
21418;SDS011;10870;51.384;10.316;2022-12-07T01:07:07;19.80;;;13.80;;
21418;SDS011;10870;51.384;10.316;2022-12-07T01:09:11;23.88;;;13.38;;
21418;SDS011;10870;51.384;10.316;2022-12-07T01:11:14;23.88;;;14.35;;
21418;SDS011;10870;51.384;10.316;2022-12-07T01:13:18;21.75;;;14.25;;
21418;SDS011;10870;51.384;10.316;2022-12-07T01:15:22;23.45;;;15.95;;
21418;SDS011;10870;51.384;10.316;2022-12-07T01:17:28;24.95;;;15.57;;
21418;SDS011;10870;51.384;10.316;2022-12-07T01:19:34;27.25;;;15.68;;
21418;SDS011;10870;51.384;10.316;2022-12-07T01:21:36;23.38;;;14.85;;
21418;SDS011;10870;51.384;10.316;2022-12-07T01:23:39;27.75;;;15.43;;
21418;SDS011;10870;51.384;10.316;2022-12-07T01:25:40;23.15;;;15.35;;
21418;SDS011;10870;51.384;10.316;2022-12-07T01:27:48;24.58;;;14.75;;
21418;SDS011;10870;51.384;10.316;2022-12-07T01:29:50;24.77;;;16.35;;
21418;SDS011;10870;51.384;10.316;2022-12-07T01:31:51;26.17;;;14.60;;
21418;SDS011;10870;51.384;10.316;2022-12-07T01:33:56;23.45;;;14.48;;
21418;SDS011;10870;51.384;10.316;2022-12-07T01:36:01;24.33;;;15.30;;
21418;SDS011;10870;51.384;10.316;2022-12-07T01:38:02;22.15;;;14.50;;
21418;SDS011;10870;51.384;10.316;2022-12-07T01:40:05;21.70;;;14.07;;
21418;SDS011;10870;51.384;10.316;2022-12-07T01:42:09;26.98;;;15.50;;
21418;SDS011;10870;51.384;10.316;2022-12-07T01:46:17;23.98;;;14.30;;
21418;SDS011;10870;51.384;10.316;2022-12-07T01:48:20;23.13;;;14.70;;
21418;SDS011;10870;51.384;10.316;2022-12-07T01:50:24;22.27;;;14.57;;
21418;SDS011;10870;51.384;10.316;2022-12-07T01:52:27;22.25;;;14.52;;
21418;SDS011;10870;51.384;10.316;2022-12-07T01:54:33;20.38;;;13.20;;
21418;SDS011;10870;51.384;10.316;2022-12-07T01:56:35;20.77;;;14.00;;
21418;SDS011;10870;51.384;10.316;2022-12-07T01:58:37;21.05;;;13.95;;
21418;SDS011;10870;51.384;10.316;2022-12-07T02:00:38;26.83;;;14.98;;
21418;SDS011;10870;51.384;10.316;2022-12-07T02:02:47;25.90;;;15.43;;
21418;SDS011;10870;51.384;10.316;2022-12-07T02:04:52;24.88;;;15.70;;
21418;SDS011;10870;51.384;10.316;2022-12-07T02:06:53;24.17;;;14.20;;
21418;SDS011;10870;51.384;10.316;2022-12-07T02:08:55;25.35;;;16.00;;
21418;SDS011;10870;51.384;10.316;2022-12-07T02:11:00;25.02;;;15.85;;
21418;SDS011;10870;51.384;10.316;2022-12-07T02:13:09;23.02;;;15.85;;
21418;SDS011;10870;51.384;10.316;2022-12-07T02:15:14;28.05;;;16.30;;
21418;SDS011;10870;51.384;10.316;2022-12-07T02:24:00;22.17;;;13.30;;
21418;SDS011;10870;51.384;10.316;2022-12-07T02:30:25;16.75;;;11.20;;
21418;SDS011;10870;51.384;10.316;2022-12-07T02:36:40;22.23;;;12.80;;
21418;SDS011;10870;51.384;10.316;2022-12-07T02:38:48;19.90;;;13.20;;
21418;SDS011;10870;51.384;10.316;2022-12-07T02:40:54;26.10;;;13.68;;
21418;SDS011;10870;51.384;10.316;2022-12-07T02:43:12;22.48;;;14.07;;
21418;SDS011;10870;51.384;10.316;2022-12-07T02:45:15;19.85;;;12.07;;
21418;SDS011;10870;51.384;10.316;2022-12-07T02:47:23;21.17;;;13.27;;
21418;SDS011;10870;51.384;10.316;2022-12-07T02:49:28;22.45;;;13.13;;
21418;SDS011;10870;51.384;10.316;2022-12-07T02:51:30;27.42;;;14.05;;
21418;SDS011;10870;51.384;10.316;2022-12-07T02:53:35;20.88;;;12.65;;
21418;SDS011;10870;51.384;10.316;2022-12-07T02:55:38;17.50;;;11.10;;
21418;SDS011;10870;51.384;10.316;2022-12-07T02:57:45;18.42;;;11.68;;
21418;SDS011;10870;51.384;10.316;2022-12-07T03:04:19;25.75;;;15.45;;
21418;SDS011;10870;51.384;10.316;2022-12-07T03:06:34;26.40;;;14.52;;
21418;SDS011;10870;51.384;10.316;2022-12-07T03:10:50;28.52;;;16.02;;
21418;SDS011;10870;51.384;10.316;2022-12-07T03:13:02;29.23;;;16.67;;
21418;SDS011;10870;51.384;10.316;2022-12-07T03:15:09;32.08;;;17.83;;
21418;SDS011;10870;51.384;10.316;2022-12-07T03:17:16;31.80;;;18.00;;
21418;SDS011;10870;51.384;10.316;2022-12-07T03:19:18;36.80;;;18.90;;
21418;SDS011;10870;51.384;10.316;2022-12-07T03:21:27;38.17;;;20.75;;
21418;SDS011;10870;51.384;10.316;2022-12-07T03:23:29;35.55;;;18.52;;
21418;SDS011;10870;51.384;10.316;2022-12-07T03:25:32;36.40;;;18.58;;
21418;SDS011;10870;51.384;10.316;2022-12-07T03:27:42;36.42;;;19.25;;
21418;SDS011;10870;51.384;10.316;2022-12-07T03:29:51;35.63;;;17.77;;
21418;SDS011;10870;51.384;10.316;2022-12-07T03:32:03;27.52;;;15.05;;
21418;SDS011;10870;51.384;10.316;2022-12-07T03:34:14;35.97;;;18.55;;
21418;SDS011;10870;51.384;10.316;2022-12-07T03:38:22;40.47;;;19.92;;
21418;SDS011;10870;51.384;10.316;2022-12-07T03:40:29;32.55;;;18.70;;
21418;SDS011;10870;51.384;10.316;2022-12-07T03:42:31;32.22;;;16.83;;
21418;SDS011;10870;51.384;10.316;2022-12-07T03:44:36;42.15;;;18.63;;
21418;SDS011;10870;51.384;10.316;2022-12-07T03:47:01;35.13;;;19.27;;
21418;SDS011;10870;51.384;10.316;2022-12-07T03:51:30;40.10;;;19.33;;
21418;SDS011;10870;51.384;10.316;2022-12-07T03:53:39;39.40;;;19.70;;
21418;SDS011;10870;51.384;10.316;2022-12-07T03:55:43;46.95;;;22.20;;
21418;SDS011;10870;51.384;10.316;2022-12-07T03:57:53;41.05;;;18.70;;
21418;SDS011;10870;51.384;10.316;2022-12-07T04:00:06;43.30;;;21.15;;
21418;SDS011;10870;51.384;10.316;2022-12-07T04:02:08;35.17;;;17.65;;
21418;SDS011;10870;51.384;10.316;2022-12-07T04:04:12;54.75;;;24.30;;
21418;SDS011;10870;51.384;10.316;2022-12-07T04:06:13;34.13;;;17.15;;
21418;SDS011;10870;51.384;10.316;2022-12-07T04:08:14;42.30;;;19.05;;
21418;SDS011;10870;51.384;10.316;2022-12-07T04:10:18;36.92;;;19.65;;
21418;SDS011;10870;51.384;10.316;2022-12-07T04:12:27;38.13;;;18.77;;
21418;SDS011;10870;51.384;10.316;2022-12-07T04:14:28;39.38;;;19.45;;
21418;SDS011;10870;51.384;10.316;2022-12-07T04:16:29;44.45;;;21.80;;
21418;SDS011;10870;51.384;10.316;2022-12-07T04:18:30;41.70;;;21.60;;
21418;SDS011;10870;51.384;10.316;2022-12-07T04:20:34;37.63;;;18.58;;
21418;SDS011;10870;51.384;10.316;2022-12-07T04:22:35;33.00;;;18.42;;
21418;SDS011;10870;51.384;10.316;2022-12-07T04:24:39;42.85;;;21.15;;
21418;SDS011;10870;51.384;10.316;2022-12-07T04:26:41;37.85;;;18.30;;
21418;SDS011;10870;51.384;10.316;2022-12-07T04:28:47;36.17;;;19.60;;
21418;SDS011;10870;51.384;10.316;2022-12-07T04:30:48;37.38;;;18.25;;
21418;SDS011;10870;51.384;10.316;2022-12-07T04:32:52;30.45;;;17.10;;
21418;SDS011;10870;51.384;10.316;2022-12-07T04:34:53;28.33;;;16.38;;
21418;SDS011;10870;51.384;10.316;2022-12-07T04:36:55;34.15;;;17.48;;
21418;SDS011;10870;51.384;10.316;2022-12-07T04:38:58;27.73;;;15.05;;
21418;SDS011;10870;51.384;10.316;2022-12-07T04:41:04;34.67;;;17.75;;
21418;SDS011;10870;51.384;10.316;2022-12-07T04:43:05;31.88;;;16.88;;
21418;SDS011;10870;51.384;10.316;2022-12-07T04:45:06;36.83;;;17.60;;
21418;SDS011;10870;51.384;10.316;2022-12-07T04:47:10;33.88;;;17.35;;
21418;SDS011;10870;51.384;10.316;2022-12-07T04:49:20;34.30;;;17.67;;
21418;SDS011;10870;51.384;10.316;2022-12-07T04:51:27;30.63;;;16.13;;
21418;SDS011;10870;51.384;10.316;2022-12-07T04:53:29;41.03;;;20.88;;
21418;SDS011;10870;51.384;10.316;2022-12-07T04:55:30;41.40;;;21.48;;
21418;SDS011;10870;51.384;10.316;2022-12-07T04:57:33;37.92;;;20.10;;
21418;SDS011;10870;51.384;10.316;2022-12-07T04:59:35;41.55;;;19.98;;
21418;SDS011;10870;51.384;10.316;2022-12-07T05:01:38;48.03;;;20.92;;
21418;SDS011;10870;51.384;10.316;2022-12-07T05:03:42;42.60;;;22.30;;
21418;SDS011;10870;51.384;10.316;2022-12-07T05:05:47;43.83;;;20.20;;
21418;SDS011;10870;51.384;10.316;2022-12-07T05:07:48;41.58;;;20.42;;
21418;SDS011;10870;51.384;10.316;2022-12-07T05:09:49;43.72;;;22.35;;
21418;SDS011;10870;51.384;10.316;2022-12-07T05:11:50;47.20;;;24.00;;
21418;SDS011;10870;51.384;10.316;2022-12-07T05:13:55;45.30;;;21.90;;
21418;SDS011;10870;51.384;10.316;2022-12-07T05:15:56;52.88;;;24.02;;
21418;SDS011;10870;51.384;10.316;2022-12-07T05:17:57;47.92;;;23.80;;
21418;SDS011;10870;51.384;10.316;2022-12-07T05:19:59;51.92;;;23.65;;
21418;SDS011;10870;51.384;10.316;2022-12-07T05:22:00;49.20;;;25.05;;
21418;SDS011;10870;51.384;10.316;2022-12-07T05:24:04;45.50;;;22.75;;
21418;SDS011;10870;51.384;10.316;2022-12-07T05:26:06;44.17;;;21.13;;
21418;SDS011;10870;51.384;10.316;2022-12-07T05:28:07;54.53;;;23.30;;
21418;SDS011;10870;51.384;10.316;2022-12-07T05:30:09;52.85;;;23.85;;
21418;SDS011;10870;51.384;10.316;2022-12-07T05:32:10;58.90;;;27.35;;
21418;SDS011;10870;51.384;10.316;2022-12-07T05:34:11;58.05;;;24.88;;
21418;SDS011;10870;51.384;10.316;2022-12-07T05:36:13;55.25;;;26.40;;
21418;SDS011;10870;51.384;10.316;2022-12-07T05:38:14;49.63;;;24.00;;
21418;SDS011;10870;51.384;10.316;2022-12-07T05:40:15;52.75;;;25.98;;
21418;SDS011;10870;51.384;10.316;2022-12-07T05:42:19;65.75;;;29.50;;
21418;SDS011;10870;51.384;10.316;2022-12-07T05:44:20;56.53;;;26.35;;
21418;SDS011;10870;51.384;10.316;2022-12-07T05:46:22;59.00;;;25.85;;
21418;SDS011;10870;51.384;10.316;2022-12-07T05:48:25;55.97;;;27.75;;
21418;SDS011;10870;51.384;10.316;2022-12-07T05:50:29;50.03;;;23.63;;
21418;SDS011;10870;51.384;10.316;2022-12-07T05:52:33;46.78;;;23.30;;
21418;SDS011;10870;51.384;10.316;2022-12-07T05:54:37;47.92;;;22.75;;
21418;SDS011;10870;51.384;10.316;2022-12-07T05:56:41;48.20;;;21.63;;
21418;SDS011;10870;51.384;10.316;2022-12-07T05:58:45;44.33;;;22.92;;
21418;SDS011;10870;51.384;10.316;2022-12-07T06:01:04;48.33;;;23.35;;
21418;SDS011;10870;51.384;10.316;2022-12-07T06:03:09;50.80;;;24.13;;
21418;SDS011;10870;51.384;10.316;2022-12-07T06:05:10;50.30;;;24.65;;
21418;SDS011;10870;51.384;10.316;2022-12-07T06:07:12;52.05;;;24.70;;
21418;SDS011;10870;51.384;10.316;2022-12-07T06:09:16;52.70;;;25.08;;
21418;SDS011;10870;51.384;10.316;2022-12-07T06:11:18;55.47;;;27.65;;
21418;SDS011;10870;51.384;10.316;2022-12-07T06:13:38;54.33;;;24.27;;
21418;SDS011;10870;51.384;10.316;2022-12-07T06:15:40;41.63;;;20.20;;
21418;SDS011;10870;51.384;10.316;2022-12-07T06:17:41;50.63;;;23.20;;
21418;SDS011;10870;51.384;10.316;2022-12-07T06:19:43;50.88;;;22.98;;
21418;SDS011;10870;51.384;10.316;2022-12-07T06:21:44;55.00;;;24.75;;
21418;SDS011;10870;51.384;10.316;2022-12-07T06:23:48;53.67;;;25.67;;
21418;SDS011;10870;51.384;10.316;2022-12-07T06:25:49;45.40;;;23.17;;
21418;SDS011;10870;51.384;10.316;2022-12-07T06:27:50;52.35;;;24.42;;
21418;SDS011;10870;51.384;10.316;2022-12-07T06:29:52;49.85;;;23.73;;
21418;SDS011;10870;51.384;10.316;2022-12-07T06:31:56;49.65;;;23.35;;
21418;SDS011;10870;51.384;10.316;2022-12-07T06:34:01;46.90;;;24.77;;
21418;SDS011;10870;51.384;10.316;2022-12-07T06:36:03;50.97;;;24.38;;
21418;SDS011;10870;51.384;10.316;2022-12-07T06:38:09;50.90;;;24.27;;
21418;SDS011;10870;51.384;10.316;2022-12-07T06:40:10;47.50;;;24.75;;
21418;SDS011;10870;51.384;10.316;2022-12-07T06:42:12;43.10;;;23.52;;
21418;SDS011;10870;51.384;10.316;2022-12-07T06:44:13;49.40;;;22.73;;
21418;SDS011;10870;51.384;10.316;2022-12-07T06:46:17;45.03;;;22.60;;
21418;SDS011;10870;51.384;10.316;2022-12-07T06:48:18;43.13;;;21.90;;
21418;SDS011;10870;51.384;10.316;2022-12-07T06:50:20;43.70;;;22.05;;
21418;SDS011;10870;51.384;10.316;2022-12-07T06:52:21;46.15;;;22.58;;
21418;SDS011;10870;51.384;10.316;2022-12-07T06:54:25;44.65;;;21.80;;
21418;SDS011;10870;51.384;10.316;2022-12-07T06:56:26;39.00;;;21.92;;
21418;SDS011;10870;51.384;10.316;2022-12-07T06:58:31;41.78;;;21.27;;
21418;SDS011;10870;51.384;10.316;2022-12-07T07:00:32;43.97;;;19.75;;
21418;SDS011;10870;51.384;10.316;2022-12-07T07:02:37;44.33;;;21.58;;
21418;SDS011;10870;51.384;10.316;2022-12-07T07:04:38;35.30;;;18.55;;
21418;SDS011;10870;51.384;10.316;2022-12-07T07:06:40;39.25;;;20.42;;
21418;SDS011;10870;51.384;10.316;2022-12-07T07:08:41;33.38;;;17.98;;
21418;SDS011;10870;51.384;10.316;2022-12-07T07:10:43;41.90;;;19.77;;
21418;SDS011;10870;51.384;10.316;2022-12-07T07:12:44;35.38;;;19.38;;
21418;SDS011;10870;51.384;10.316;2022-12-07T07:14:45;35.42;;;18.30;;
21418;SDS011;10870;51.384;10.316;2022-12-07T07:16:49;30.55;;;15.35;;
21418;SDS011;10870;51.384;10.316;2022-12-07T07:18:53;31.55;;;17.75;;
21418;SDS011;10870;51.384;10.316;2022-12-07T07:20:54;36.38;;;18.33;;
21418;SDS011;10870;51.384;10.316;2022-12-07T07:22:57;32.97;;;16.58;;
21418;SDS011;10870;51.384;10.316;2022-12-07T07:24:59;29.45;;;15.25;;
21418;SDS011;10870;51.384;10.316;2022-12-07T07:27:00;36.75;;;16.65;;
21418;SDS011;10870;51.384;10.316;2022-12-07T07:29:02;32.75;;;14.45;;
21418;SDS011;10870;51.384;10.316;2022-12-07T07:31:03;31.52;;;16.42;;
21418;SDS011;10870;51.384;10.316;2022-12-07T07:33:04;35.13;;;18.13;;
21418;SDS011;10870;51.384;10.316;2022-12-07T07:35:08;28.13;;;16.77;;
21418;SDS011;10870;51.384;10.316;2022-12-07T07:37:13;26.65;;;14.85;;
21418;SDS011;10870;51.384;10.316;2022-12-07T07:39:14;30.27;;;16.55;;
21418;SDS011;10870;51.384;10.316;2022-12-07T07:41:15;27.58;;;14.80;;
21418;SDS011;10870;51.384;10.316;2022-12-07T07:43:17;39.40;;;15.98;;
21418;SDS011;10870;51.384;10.316;2022-12-07T07:45:21;29.80;;;14.43;;
21418;SDS011;10870;51.384;10.316;2022-12-07T07:47:25;30.30;;;14.60;;
21418;SDS011;10870;51.384;10.316;2022-12-07T07:49:29;27.70;;;15.90;;
21418;SDS011;10870;51.384;10.316;2022-12-07T07:51:30;31.48;;;17.75;;
21418;SDS011;10870;51.384;10.316;2022-12-07T07:53:31;25.08;;;13.32;;
21418;SDS011;10870;51.384;10.316;2022-12-07T07:55:33;44.10;;;16.95;;
21418;SDS011;10870;51.384;10.316;2022-12-07T07:57:35;34.05;;;16.90;;
21418;SDS011;10870;51.384;10.316;2022-12-07T07:59:36;36.03;;;16.02;;
21418;SDS011;10870;51.384;10.316;2022-12-07T08:01:40;23.05;;;13.52;;
21418;SDS011;10870;51.384;10.316;2022-12-07T08:03:41;36.83;;;16.58;;
21418;SDS011;10870;51.384;10.316;2022-12-07T08:05:42;26.17;;;15.60;;
21418;SDS011;10870;51.384;10.316;2022-12-07T08:07:43;27.73;;;13.90;;
21418;SDS011;10870;51.384;10.316;2022-12-07T08:09:45;26.67;;;14.93;;
21418;SDS011;10870;51.384;10.316;2022-12-07T08:11:48;23.00;;;14.45;;
21418;SDS011;10870;51.384;10.316;2022-12-07T08:13:50;25.50;;;13.80;;
21418;SDS011;10870;51.384;10.316;2022-12-07T08:15:51;29.00;;;13.23;;
21418;SDS011;10870;51.384;10.316;2022-12-07T08:17:53;26.17;;;13.73;;
21418;SDS011;10870;51.384;10.316;2022-12-07T08:19:56;33.05;;;14.60;;
21418;SDS011;10870;51.384;10.316;2022-12-07T08:21:57;26.23;;;12.98;;
21418;SDS011;10870;51.384;10.316;2022-12-07T08:23:59;29.65;;;13.73;;
21418;SDS011;10870;51.384;10.316;2022-12-07T08:26:09;26.73;;;14.90;;
21418;SDS011;10870;51.384;10.316;2022-12-07T08:28:11;20.77;;;11.77;;
21418;SDS011;10870;51.384;10.316;2022-12-07T08:30:14;24.38;;;12.32;;
21418;SDS011;10870;51.384;10.316;2022-12-07T08:32:16;27.05;;;12.43;;
21418;SDS011;10870;51.384;10.316;2022-12-07T08:34:19;21.92;;;11.68;;
21418;SDS011;10870;51.384;10.316;2022-12-07T08:36:21;22.63;;;13.00;;
21418;SDS011;10870;51.384;10.316;2022-12-07T08:38:23;21.98;;;11.70;;
21418;SDS011;10870;51.384;10.316;2022-12-07T08:40:29;27.10;;;12.63;;
21418;SDS011;10870;51.384;10.316;2022-12-07T08:42:35;21.83;;;9.70;;
21418;SDS011;10870;51.384;10.316;2022-12-07T08:44:40;23.08;;;11.43;;
21418;SDS011;10870;51.384;10.316;2022-12-07T08:46:43;26.63;;;11.57;;
21418;SDS011;10870;51.384;10.316;2022-12-07T08:48:50;18.77;;;11.15;;
21418;SDS011;10870;51.384;10.316;2022-12-07T08:50:51;26.75;;;10.80;;
21418;SDS011;10870;51.384;10.316;2022-12-07T08:52:56;15.75;;;9.07;;
21418;SDS011;10870;51.384;10.316;2022-12-07T08:55:00;18.25;;;9.93;;
21418;SDS011;10870;51.384;10.316;2022-12-07T08:57:02;18.33;;;10.63;;
21418;SDS011;10870;51.384;10.316;2022-12-07T08:59:06;19.30;;;8.88;;
21418;SDS011;10870;51.384;10.316;2022-12-07T09:01:08;18.00;;;8.23;;
21418;SDS011;10870;51.384;10.316;2022-12-07T09:03:12;20.98;;;9.80;;
21418;SDS011;10870;51.384;10.316;2022-12-07T09:05:14;17.67;;;10.13;;
21418;SDS011;10870;51.384;10.316;2022-12-07T09:07:17;17.65;;;9.15;;
21418;SDS011;10870;51.384;10.316;2022-12-07T09:09:22;16.40;;;9.30;;
21418;SDS011;10870;51.384;10.316;2022-12-07T09:11:25;15.60;;;8.25;;
21418;SDS011;10870;51.384;10.316;2022-12-07T09:13:26;23.60;;;10.50;;
21418;SDS011;10870;51.384;10.316;2022-12-07T09:15:28;14.55;;;7.50;;
21418;SDS011;10870;51.384;10.316;2022-12-07T09:17:31;15.55;;;7.95;;
21418;SDS011;10870;51.384;10.316;2022-12-07T09:19:33;14.18;;;8.35;;
21418;SDS011;10870;51.384;10.316;2022-12-07T09:21:37;20.73;;;8.15;;
21418;SDS011;10870;51.384;10.316;2022-12-07T09:23:43;14.20;;;7.72;;
21418;SDS011;10870;51.384;10.316;2022-12-07T09:25:47;12.27;;;7.88;;
21418;SDS011;10870;51.384;10.316;2022-12-07T09:27:57;13.43;;;7.82;;
21418;SDS011;10870;51.384;10.316;2022-12-07T09:29:58;18.85;;;8.35;;
21418;SDS011;10870;51.384;10.316;2022-12-07T09:31:59;12.00;;;7.60;;
21418;SDS011;10870;51.384;10.316;2022-12-07T09:34:01;14.18;;;7.47;;
21418;SDS011;10870;51.384;10.316;2022-12-07T09:36:02;12.80;;;7.97;;
21418;SDS011;10870;51.384;10.316;2022-12-07T09:38:06;17.63;;;8.90;;
21418;SDS011;10870;51.384;10.316;2022-12-07T09:40:12;16.48;;;8.55;;
21418;SDS011;10870;51.384;10.316;2022-12-07T09:44:25;14.48;;;8.23;;
21418;SDS011;10870;51.384;10.316;2022-12-07T09:46:30;18.20;;;9.18;;
21418;SDS011;10870;51.384;10.316;2022-12-07T09:48:36;20.45;;;10.55;;
21418;SDS011;10870;51.384;10.316;2022-12-07T09:50:39;21.75;;;10.10;;
21418;SDS011;10870;51.384;10.316;2022-12-07T09:52:40;25.88;;;10.60;;
21418;SDS011;10870;51.384;10.316;2022-12-07T09:54:45;23.40;;;9.45;;
21418;SDS011;10870;51.384;10.316;2022-12-07T09:56:47;25.02;;;10.48;;
21418;SDS011;10870;51.384;10.316;2022-12-07T09:58:51;16.50;;;9.55;;
21418;SDS011;10870;51.384;10.316;2022-12-07T10:00:56;19.45;;;9.90;;
21418;SDS011;10870;51.384;10.316;2022-12-07T10:03:01;11.63;;;6.88;;
21418;SDS011;10870;51.384;10.316;2022-12-07T10:05:06;18.38;;;7.85;;
21418;SDS011;10870;51.384;10.316;2022-12-07T10:07:13;13.10;;;7.45;;
21418;SDS011;10870;51.384;10.316;2022-12-07T10:09:16;15.45;;;8.18;;
21418;SDS011;10870;51.384;10.316;2022-12-07T10:11:17;19.25;;;8.48;;
21418;SDS011;10870;51.384;10.316;2022-12-07T10:13:20;14.05;;;7.60;;
21418;SDS011;10870;51.384;10.316;2022-12-07T10:15:24;11.48;;;6.28;;
21418;SDS011;10870;51.384;10.316;2022-12-07T10:17:41;11.75;;;7.65;;
21418;SDS011;10870;51.384;10.316;2022-12-07T10:19:48;16.10;;;8.07;;
21418;SDS011;10870;51.384;10.316;2022-12-07T10:24:21;11.82;;;6.18;;
21418;SDS011;10870;51.384;10.316;2022-12-07T10:28:33;18.42;;;7.53;;
21418;SDS011;10870;51.384;10.316;2022-12-07T10:30:46;18.38;;;7.78;;
21418;SDS011;10870;51.384;10.316;2022-12-07T10:32:49;12.55;;;6.93;;
21418;SDS011;10870;51.384;10.316;2022-12-07T10:34:59;14.23;;;6.13;;
21418;SDS011;10870;51.384;10.316;2022-12-07T10:39:18;10.00;;;6.97;;
21418;SDS011;10870;51.384;10.316;2022-12-07T10:41:21;8.98;;;5.28;;
21418;SDS011;10870;51.384;10.316;2022-12-07T10:43:23;13.10;;;6.85;;
21418;SDS011;10870;51.384;10.316;2022-12-07T10:45:24;14.40;;;7.13;;
21418;SDS011;10870;51.384;10.316;2022-12-07T10:47:36;10.48;;;5.50;;
21418;SDS011;10870;51.384;10.316;2022-12-07T11:05:17;9.93;;;5.05;;
21418;SDS011;10870;51.384;10.316;2022-12-07T11:07:35;11.18;;;5.22;;
21418;SDS011;10870;51.384;10.316;2022-12-07T11:11:42;11.23;;;5.18;;
21418;SDS011;10870;51.384;10.316;2022-12-07T11:13:53;11.80;;;5.38;;
21418;SDS011;10870;51.384;10.316;2022-12-07T11:16:13;11.35;;;5.82;;
21418;SDS011;10870;51.384;10.316;2022-12-07T11:18:24;8.95;;;6.55;;
21418;SDS011;10870;51.384;10.316;2022-12-07T11:31:17;13.23;;;7.00;;
21418;SDS011;10870;51.384;10.316;2022-12-07T11:37:59;12.02;;;5.38;;
21418;SDS011;10870;51.384;10.316;2022-12-07T11:40:03;11.23;;;4.32;;
21418;SDS011;10870;51.384;10.316;2022-12-07T11:42:09;9.70;;;5.18;;
21418;SDS011;10870;51.384;10.316;2022-12-07T11:44:25;10.63;;;5.80;;
21418;SDS011;10870;51.384;10.316;2022-12-07T11:50:50;12.93;;;6.18;;
21418;SDS011;10870;51.384;10.316;2022-12-07T11:55:16;9.10;;;4.47;;
21418;SDS011;10870;51.384;10.316;2022-12-07T11:57:22;12.23;;;5.28;;
21418;SDS011;10870;51.384;10.316;2022-12-07T11:59:27;8.38;;;4.38;;
21418;SDS011;10870;51.384;10.316;2022-12-07T12:01:40;10.10;;;3.45;;
21418;SDS011;10870;51.384;10.316;2022-12-07T12:03:51;6.72;;;3.92;;
21418;SDS011;10870;51.384;10.316;2022-12-07T12:05:53;10.43;;;4.03;;
21418;SDS011;10870;51.384;10.316;2022-12-07T12:08:11;8.85;;;4.32;;
21418;SDS011;10870;51.384;10.316;2022-12-07T12:10:21;10.05;;;5.13;;
21418;SDS011;10870;51.384;10.316;2022-12-07T12:16:50;8.40;;;4.25;;
21418;SDS011;10870;51.384;10.316;2022-12-07T12:21:02;11.95;;;5.03;;
21418;SDS011;10870;51.384;10.316;2022-12-07T12:23:20;9.40;;;4.32;;
21418;SDS011;10870;51.384;10.316;2022-12-07T12:25:26;11.77;;;5.93;;
21418;SDS011;10870;51.384;10.316;2022-12-07T12:27:31;9.20;;;4.82;;
21418;SDS011;10870;51.384;10.316;2022-12-07T12:29:35;9.25;;;4.68;;
21418;SDS011;10870;51.384;10.316;2022-12-07T12:33:43;10.55;;;4.65;;
21418;SDS011;10870;51.384;10.316;2022-12-07T12:35:46;9.40;;;5.50;;
21418;SDS011;10870;51.384;10.316;2022-12-07T12:42:18;9.50;;;4.55;;
21418;SDS011;10870;51.384;10.316;2022-12-07T12:48:36;12.18;;;6.35;;
21418;SDS011;10870;51.384;10.316;2022-12-07T12:50:40;9.48;;;4.57;;
21418;SDS011;10870;51.384;10.316;2022-12-07T12:57:27;7.38;;;4.30;;
21418;SDS011;10870;51.384;10.316;2022-12-07T13:01:37;7.80;;;4.55;;
21418;SDS011;10870;51.384;10.316;2022-12-07T13:03:51;9.85;;;4.00;;
21418;SDS011;10870;51.384;10.316;2022-12-07T13:12:27;12.57;;;5.68;;
21418;SDS011;10870;51.384;10.316;2022-12-07T13:16:43;9.77;;;4.90;;
21418;SDS011;10870;51.384;10.316;2022-12-07T13:18:47;8.85;;;5.35;;
21418;SDS011;10870;51.384;10.316;2022-12-07T13:22:57;9.13;;;4.93;;
21418;SDS011;10870;51.384;10.316;2022-12-07T13:25:07;10.20;;;4.93;;
21418;SDS011;10870;51.384;10.316;2022-12-07T13:27:11;17.92;;;6.13;;
21418;SDS011;10870;51.384;10.316;2022-12-07T13:29:14;10.70;;;6.18;;
21418;SDS011;10870;51.384;10.316;2022-12-07T13:38:38;11.30;;;4.32;;
21418;SDS011;10870;51.384;10.316;2022-12-07T13:40:42;8.23;;;4.75;;
21418;SDS011;10870;51.384;10.316;2022-12-07T13:43:12;10.60;;;5.63;;
21418;SDS011;10870;51.384;10.316;2022-12-07T13:45:38;7.68;;;4.28;;
21418;SDS011;10870;51.384;10.316;2022-12-07T13:47:52;7.68;;;4.32;;
21418;SDS011;10870;51.384;10.316;2022-12-07T13:50:15;7.60;;;4.43;;
21418;SDS011;10870;51.384;10.316;2022-12-07T13:52:24;17.73;;;4.80;;
21418;SDS011;10870;51.384;10.316;2022-12-07T13:54:42;7.22;;;4.43;;
21418;SDS011;10870;51.384;10.316;2022-12-07T13:56:48;10.65;;;5.50;;
21418;SDS011;10870;51.384;10.316;2022-12-07T13:58:51;11.80;;;4.68;;
21418;SDS011;10870;51.384;10.316;2022-12-07T14:00:58;14.65;;;5.78;;